sensor_id;sensor_type;location;lat;lon;timestamp;P1;durP1;ratioP1;P2;durP2;ratioP2
64197;SDS011;50512;53.666;9.700;2022-10-15T00:02:04;18.30;;;9.70;;
64197;SDS011;50512;53.666;9.700;2022-10-15T00:04:29;24.40;;;11.23;;
64197;SDS011;50512;53.666;9.700;2022-10-15T00:06:55;19.60;;;9.73;;
64197;SDS011;50512;53.666;9.700;2022-10-15T00:09:22;22.52;;;9.90;;
64197;SDS011;50512;53.666;9.700;2022-10-15T00:11:47;20.60;;;10.57;;
64197;SDS011;50512;53.666;9.700;2022-10-15T00:14:13;20.33;;;10.20;;
64197;SDS011;50512;53.666;9.700;2022-10-15T00:16:38;22.88;;;11.02;;
64197;SDS011;50512;53.666;9.700;2022-10-15T00:19:04;22.23;;;10.07;;
64197;SDS011;50512;53.666;9.700;2022-10-15T00:21:29;24.80;;;10.73;;
64197;SDS011;50512;53.666;9.700;2022-10-15T00:23:55;20.83;;;10.10;;
64197;SDS011;50512;53.666;9.700;2022-10-15T00:26:22;26.23;;;11.07;;
64197;SDS011;50512;53.666;9.700;2022-10-15T00:28:50;21.90;;;11.38;;
64197;SDS011;50512;53.666;9.700;2022-10-15T00:31:17;25.88;;;11.77;;
64197;SDS011;50512;53.666;9.700;2022-10-15T00:33:43;24.33;;;11.32;;
64197;SDS011;50512;53.666;9.700;2022-10-15T00:36:10;21.13;;;10.68;;
64197;SDS011;50512;53.666;9.700;2022-10-15T00:38:37;22.40;;;11.48;;
64197;SDS011;50512;53.666;9.700;2022-10-15T00:41:03;23.45;;;11.18;;
64197;SDS011;50512;53.666;9.700;2022-10-15T00:43:41;24.95;;;11.25;;
64197;SDS011;50512;53.666;9.700;2022-10-15T00:46:14;23.38;;;11.73;;
64197;SDS011;50512;53.666;9.700;2022-10-15T00:48:41;25.77;;;13.15;;
64197;SDS011;50512;53.666;9.700;2022-10-15T00:51:08;27.40;;;10.73;;
64197;SDS011;50512;53.666;9.700;2022-10-15T00:53:33;26.45;;;12.30;;
64197;SDS011;50512;53.666;9.700;2022-10-15T00:55:59;28.48;;;13.13;;
64197;SDS011;50512;53.666;9.700;2022-10-15T00:58:25;31.20;;;14.45;;
64197;SDS011;50512;53.666;9.700;2022-10-15T01:00:57;26.98;;;13.00;;
64197;SDS011;50512;53.666;9.700;2022-10-15T01:03:22;29.75;;;13.40;;
64197;SDS011;50512;53.666;9.700;2022-10-15T01:05:49;26.63;;;12.43;;
64197;SDS011;50512;53.666;9.700;2022-10-15T01:08:16;32.10;;;14.98;;
64197;SDS011;50512;53.666;9.700;2022-10-15T01:10:43;33.42;;;15.73;;
64197;SDS011;50512;53.666;9.700;2022-10-15T01:13:17;31.67;;;14.38;;
64197;SDS011;50512;53.666;9.700;2022-10-15T01:15:52;35.58;;;16.90;;
64197;SDS011;50512;53.666;9.700;2022-10-15T01:18:23;29.77;;;16.00;;
64197;SDS011;50512;53.666;9.700;2022-10-15T01:20:55;32.80;;;15.15;;
64197;SDS011;50512;53.666;9.700;2022-10-15T01:26:48;36.85;;;15.18;;
64197;SDS011;50512;53.666;9.700;2022-10-15T01:29:46;37.47;;;15.05;;
64197;SDS011;50512;53.666;9.700;2022-10-15T01:32:24;31.77;;;15.10;;
64197;SDS011;50512;53.666;9.700;2022-10-15T01:34:52;33.40;;;14.90;;
64197;SDS011;50512;53.666;9.700;2022-10-15T01:37:25;32.35;;;14.57;;
64197;SDS011;50512;53.666;9.700;2022-10-15T01:39:58;32.00;;;15.32;;
64197;SDS011;50512;53.666;9.700;2022-10-15T01:42:29;33.70;;;14.02;;
64197;SDS011;50512;53.666;9.700;2022-10-15T01:45:00;37.63;;;16.25;;
64197;SDS011;50512;53.666;9.700;2022-10-15T01:47:33;34.38;;;15.35;;
64197;SDS011;50512;53.666;9.700;2022-10-15T01:50:02;40.38;;;15.20;;
64197;SDS011;50512;53.666;9.700;2022-10-15T01:52:30;33.85;;;15.30;;
64197;SDS011;50512;53.666;9.700;2022-10-15T01:55:00;33.92;;;15.43;;
64197;SDS011;50512;53.666;9.700;2022-10-15T01:57:29;33.70;;;15.73;;
64197;SDS011;50512;53.666;9.700;2022-10-15T01:59:57;36.78;;;15.93;;
64197;SDS011;50512;53.666;9.700;2022-10-15T02:02:23;37.47;;;16.10;;
64197;SDS011;50512;53.666;9.700;2022-10-15T02:04:50;36.92;;;16.30;;
64197;SDS011;50512;53.666;9.700;2022-10-15T02:07:17;35.03;;;15.05;;
64197;SDS011;50512;53.666;9.700;2022-10-15T02:09:52;39.33;;;17.17;;
64197;SDS011;50512;53.666;9.700;2022-10-15T02:12:27;38.15;;;17.27;;
64197;SDS011;50512;53.666;9.700;2022-10-15T02:14:59;38.65;;;16.98;;
64197;SDS011;50512;53.666;9.700;2022-10-15T02:17:30;41.40;;;18.13;;
64197;SDS011;50512;53.666;9.700;2022-10-15T02:20:05;42.80;;;18.42;;
64197;SDS011;50512;53.666;9.700;2022-10-15T02:22:38;40.80;;;16.67;;
64197;SDS011;50512;53.666;9.700;2022-10-15T02:25:08;41.20;;;17.85;;
64197;SDS011;50512;53.666;9.700;2022-10-15T02:27:39;39.95;;;17.48;;
64197;SDS011;50512;53.666;9.700;2022-10-15T02:30:06;38.15;;;16.13;;
64197;SDS011;50512;53.666;9.700;2022-10-15T02:32:33;42.65;;;19.08;;
64197;SDS011;50512;53.666;9.700;2022-10-15T02:35:01;42.47;;;17.50;;
64197;SDS011;50512;53.666;9.700;2022-10-15T02:37:29;40.28;;;17.48;;
64197;SDS011;50512;53.666;9.700;2022-10-15T02:39:55;40.28;;;17.85;;
64197;SDS011;50512;53.666;9.700;2022-10-15T02:42:20;41.17;;;18.00;;
64197;SDS011;50512;53.666;9.700;2022-10-15T02:44:46;39.50;;;17.92;;
64197;SDS011;50512;53.666;9.700;2022-10-15T02:47:12;38.72;;;18.05;;
64197;SDS011;50512;53.666;9.700;2022-10-15T02:49:38;35.42;;;17.42;;
64197;SDS011;50512;53.666;9.700;2022-10-15T02:52:03;41.30;;;17.15;;
64197;SDS011;50512;53.666;9.700;2022-10-15T02:54:30;46.90;;;18.45;;
64197;SDS011;50512;53.666;9.700;2022-10-15T02:56:56;36.90;;;16.88;;
64197;SDS011;50512;53.666;9.700;2022-10-15T02:59:21;40.95;;;16.88;;
64197;SDS011;50512;53.666;9.700;2022-10-15T03:01:46;43.13;;;17.90;;
64197;SDS011;50512;53.666;9.700;2022-10-15T03:04:12;40.92;;;16.85;;
64197;SDS011;50512;53.666;9.700;2022-10-15T03:06:38;37.72;;;17.02;;
64197;SDS011;50512;53.666;9.700;2022-10-15T03:09:03;39.03;;;16.27;;
64197;SDS011;50512;53.666;9.700;2022-10-15T03:11:30;40.72;;;17.50;;
64197;SDS011;50512;53.666;9.700;2022-10-15T03:13:56;36.72;;;15.73;;
64197;SDS011;50512;53.666;9.700;2022-10-15T03:16:21;41.97;;;15.43;;
64197;SDS011;50512;53.666;9.700;2022-10-15T03:18:46;41.83;;;17.25;;
64197;SDS011;50512;53.666;9.700;2022-10-15T03:21:12;44.63;;;17.33;;
64197;SDS011;50512;53.666;9.700;2022-10-15T03:23:37;38.30;;;16.15;;
64197;SDS011;50512;53.666;9.700;2022-10-15T03:26:03;41.85;;;16.60;;
64197;SDS011;50512;53.666;9.700;2022-10-15T03:28:29;45.83;;;15.88;;
64197;SDS011;50512;53.666;9.700;2022-10-15T03:30:55;41.92;;;14.95;;
64197;SDS011;50512;53.666;9.700;2022-10-15T03:33:20;44.38;;;15.98;;
64197;SDS011;50512;53.666;9.700;2022-10-15T03:35:46;39.58;;;15.43;;
64197;SDS011;50512;53.666;9.700;2022-10-15T03:38:11;41.60;;;15.55;;
64197;SDS011;50512;53.666;9.700;2022-10-15T03:40:37;37.53;;;14.82;;
64197;SDS011;50512;53.666;9.700;2022-10-15T03:43:02;40.33;;;15.43;;
64197;SDS011;50512;53.666;9.700;2022-10-15T03:45:29;40.40;;;15.07;;
64197;SDS011;50512;53.666;9.700;2022-10-15T03:47:56;42.22;;;15.93;;
64197;SDS011;50512;53.666;9.700;2022-10-15T03:50:21;40.38;;;16.40;;
64197;SDS011;50512;53.666;9.700;2022-10-15T03:52:46;38.15;;;15.43;;
64197;SDS011;50512;53.666;9.700;2022-10-15T03:55:12;43.95;;;16.00;;
64197;SDS011;50512;53.666;9.700;2022-10-15T03:57:37;41.92;;;16.50;;
64197;SDS011;50512;53.666;9.700;2022-10-15T04:00:04;41.60;;;15.52;;
64197;SDS011;50512;53.666;9.700;2022-10-15T04:02:32;44.95;;;15.73;;
64197;SDS011;50512;53.666;9.700;2022-10-15T04:04:57;45.05;;;15.57;;
64197;SDS011;50512;53.666;9.700;2022-10-15T04:07:23;46.47;;;16.23;;
64197;SDS011;50512;53.666;9.700;2022-10-15T04:09:48;42.80;;;15.70;;
64197;SDS011;50512;53.666;9.700;2022-10-15T04:12:14;43.92;;;16.90;;
64197;SDS011;50512;53.666;9.700;2022-10-15T04:14:40;51.60;;;17.80;;
64197;SDS011;50512;53.666;9.700;2022-10-15T04:17:05;43.88;;;16.58;;
64197;SDS011;50512;53.666;9.700;2022-10-15T04:19:32;43.53;;;16.73;;
64197;SDS011;50512;53.666;9.700;2022-10-15T04:21:58;44.88;;;16.80;;
64197;SDS011;50512;53.666;9.700;2022-10-15T04:24:23;28.33;;;10.95;;
64197;SDS011;50512;53.666;9.700;2022-10-15T04:26:49;55.55;;;18.80;;
64197;SDS011;50512;53.666;9.700;2022-10-15T04:29:14;51.88;;;18.10;;
64197;SDS011;50512;53.666;9.700;2022-10-15T04:31:40;47.00;;;17.15;;
64197;SDS011;50512;53.666;9.700;2022-10-15T04:34:06;57.08;;;18.42;;
64197;SDS011;50512;53.666;9.700;2022-10-15T04:36:33;45.33;;;17.13;;
64197;SDS011;50512;53.666;9.700;2022-10-15T04:38:59;50.50;;;18.70;;
64197;SDS011;50512;53.666;9.700;2022-10-15T04:41:25;52.70;;;18.52;;
64197;SDS011;50512;53.666;9.700;2022-10-15T04:43:50;48.97;;;17.08;;
64197;SDS011;50512;53.666;9.700;2022-10-15T04:46:16;51.67;;;18.23;;
64197;SDS011;50512;53.666;9.700;2022-10-15T04:48:42;51.65;;;17.10;;
64197;SDS011;50512;53.666;9.700;2022-10-15T04:51:08;53.97;;;16.98;;
64197;SDS011;50512;53.666;9.700;2022-10-15T04:53:37;63.45;;;19.63;;
64197;SDS011;50512;53.666;9.700;2022-10-15T04:56:04;57.13;;;18.60;;
64197;SDS011;50512;53.666;9.700;2022-10-15T04:58:30;55.92;;;19.30;;
64197;SDS011;50512;53.666;9.700;2022-10-15T05:00:59;49.10;;;16.52;;
64197;SDS011;50512;53.666;9.700;2022-10-15T05:03:25;52.67;;;17.90;;
64197;SDS011;50512;53.666;9.700;2022-10-15T05:05:50;51.58;;;18.33;;
64197;SDS011;50512;53.666;9.700;2022-10-15T05:08:16;52.22;;;17.98;;
64197;SDS011;50512;53.666;9.700;2022-10-15T05:10:43;61.33;;;17.52;;
64197;SDS011;50512;53.666;9.700;2022-10-15T05:13:08;51.63;;;18.10;;
64197;SDS011;50512;53.666;9.700;2022-10-15T05:15:33;56.80;;;17.83;;
64197;SDS011;50512;53.666;9.700;2022-10-15T05:17:59;64.35;;;20.67;;
64197;SDS011;50512;53.666;9.700;2022-10-15T05:20:24;53.08;;;17.65;;
64197;SDS011;50512;53.666;9.700;2022-10-15T05:22:50;55.22;;;17.40;;
64197;SDS011;50512;53.666;9.700;2022-10-15T05:25:15;57.83;;;19.17;;
64197;SDS011;50512;53.666;9.700;2022-10-15T05:27:42;62.55;;;20.42;;
64197;SDS011;50512;53.666;9.700;2022-10-15T05:30:08;58.78;;;19.65;;
64197;SDS011;50512;53.666;9.700;2022-10-15T05:32:34;65.60;;;18.77;;
64197;SDS011;50512;53.666;9.700;2022-10-15T05:34:59;61.00;;;20.48;;
64197;SDS011;50512;53.666;9.700;2022-10-15T05:37:25;50.42;;;18.10;;
64197;SDS011;50512;53.666;9.700;2022-10-15T05:39:50;53.05;;;19.20;;
64197;SDS011;50512;53.666;9.700;2022-10-15T05:42:16;54.08;;;17.25;;
64197;SDS011;50512;53.666;9.700;2022-10-15T05:44:42;58.88;;;20.50;;
64197;SDS011;50512;53.666;9.700;2022-10-15T05:47:08;62.13;;;20.38;;
64197;SDS011;50512;53.666;9.700;2022-10-15T05:49:33;58.38;;;19.60;;
64197;SDS011;50512;53.666;9.700;2022-10-15T05:51:59;56.17;;;19.45;;
64197;SDS011;50512;53.666;9.700;2022-10-15T05:54:24;52.08;;;18.77;;
64197;SDS011;50512;53.666;9.700;2022-10-15T05:56:50;55.88;;;19.45;;
64197;SDS011;50512;53.666;9.700;2022-10-15T05:59:15;63.40;;;20.33;;
64197;SDS011;50512;53.666;9.700;2022-10-15T06:01:42;56.90;;;19.73;;
64197;SDS011;50512;53.666;9.700;2022-10-15T06:04:07;60.17;;;18.92;;
64197;SDS011;50512;53.666;9.700;2022-10-15T06:06:33;64.43;;;19.77;;
64197;SDS011;50512;53.666;9.700;2022-10-15T06:08:58;58.63;;;17.95;;
64197;SDS011;50512;53.666;9.700;2022-10-15T06:11:24;51.35;;;20.00;;
64197;SDS011;50512;53.666;9.700;2022-10-15T06:13:49;60.47;;;19.67;;
64197;SDS011;50512;53.666;9.700;2022-10-15T06:16:15;70.63;;;19.85;;
64197;SDS011;50512;53.666;9.700;2022-10-15T06:18:42;56.70;;;18.95;;
64197;SDS011;50512;53.666;9.700;2022-10-15T06:21:08;62.65;;;22.45;;
64197;SDS011;50512;53.666;9.700;2022-10-15T06:23:35;62.50;;;19.80;;
64197;SDS011;50512;53.666;9.700;2022-10-15T06:26:00;64.22;;;22.27;;
64197;SDS011;50512;53.666;9.700;2022-10-15T06:28:26;57.53;;;21.35;;
64197;SDS011;50512;53.666;9.700;2022-10-15T06:30:52;62.45;;;20.17;;
64197;SDS011;50512;53.666;9.700;2022-10-15T06:33:17;58.47;;;20.02;;
64197;SDS011;50512;53.666;9.700;2022-10-15T06:35:44;58.53;;;20.90;;
64197;SDS011;50512;53.666;9.700;2022-10-15T06:38:09;65.47;;;18.58;;
64197;SDS011;50512;53.666;9.700;2022-10-15T06:40:36;65.00;;;21.98;;
64197;SDS011;50512;53.666;9.700;2022-10-15T06:43:02;65.10;;;21.38;;
64197;SDS011;50512;53.666;9.700;2022-10-15T06:45:28;59.45;;;20.38;;
64197;SDS011;50512;53.666;9.700;2022-10-15T06:47:53;66.45;;;21.52;;
64197;SDS011;50512;53.666;9.700;2022-10-15T06:50:19;64.28;;;23.80;;
64197;SDS011;50512;53.666;9.700;2022-10-15T06:52:46;63.47;;;21.55;;
64197;SDS011;50512;53.666;9.700;2022-10-15T06:55:12;67.53;;;22.15;;
64197;SDS011;50512;53.666;9.700;2022-10-15T06:57:37;64.80;;;23.08;;
64197;SDS011;50512;53.666;9.700;2022-10-15T07:00:03;70.38;;;23.05;;
64197;SDS011;50512;53.666;9.700;2022-10-15T07:02:29;65.95;;;22.92;;
64197;SDS011;50512;53.666;9.700;2022-10-15T07:04:54;67.05;;;21.85;;
64197;SDS011;50512;53.666;9.700;2022-10-15T07:07:19;68.22;;;22.77;;
64197;SDS011;50512;53.666;9.700;2022-10-15T07:09:46;67.60;;;23.30;;
64197;SDS011;50512;53.666;9.700;2022-10-15T07:12:12;66.55;;;23.10;;
64197;SDS011;50512;53.666;9.700;2022-10-15T07:14:37;65.30;;;21.20;;
64197;SDS011;50512;53.666;9.700;2022-10-15T07:17:03;66.47;;;22.83;;
64197;SDS011;50512;53.666;9.700;2022-10-15T07:19:28;63.65;;;21.38;;
64197;SDS011;50512;53.666;9.700;2022-10-15T07:21:54;63.47;;;22.48;;
64197;SDS011;50512;53.666;9.700;2022-10-15T07:24:20;63.08;;;22.92;;
64197;SDS011;50512;53.666;9.700;2022-10-15T07:26:47;55.83;;;19.98;;
64197;SDS011;50512;53.666;9.700;2022-10-15T07:29:12;65.40;;;21.73;;
64197;SDS011;50512;53.666;9.700;2022-10-15T07:31:37;67.50;;;23.33;;
64197;SDS011;50512;53.666;9.700;2022-10-15T07:34:03;66.82;;;24.58;;
64197;SDS011;50512;53.666;9.700;2022-10-15T07:36:29;63.05;;;21.65;;
64197;SDS011;50512;53.666;9.700;2022-10-15T07:38:55;65.13;;;20.65;;
64197;SDS011;50512;53.666;9.700;2022-10-15T07:41:20;62.53;;;21.13;;
64197;SDS011;50512;53.666;9.700;2022-10-15T07:43:47;61.70;;;21.88;;
64197;SDS011;50512;53.666;9.700;2022-10-15T07:46:15;52.40;;;19.92;;
64197;SDS011;50512;53.666;9.700;2022-10-15T07:48:40;59.33;;;20.60;;
64197;SDS011;50512;53.666;9.700;2022-10-15T07:51:06;61.80;;;20.33;;
64197;SDS011;50512;53.666;9.700;2022-10-15T07:53:31;63.70;;;22.25;;
64197;SDS011;50512;53.666;9.700;2022-10-15T07:55:58;67.40;;;20.15;;
64197;SDS011;50512;53.666;9.700;2022-10-15T07:58:24;55.38;;;21.17;;
64197;SDS011;50512;53.666;9.700;2022-10-15T08:00:51;55.80;;;18.73;;
64197;SDS011;50512;53.666;9.700;2022-10-15T08:03:16;57.28;;;21.02;;
64197;SDS011;50512;53.666;9.700;2022-10-15T08:05:42;61.00;;;19.73;;
64197;SDS011;50512;53.666;9.700;2022-10-15T08:08:07;53.92;;;19.25;;
64197;SDS011;50512;53.666;9.700;2022-10-15T08:10:34;58.05;;;19.65;;
64197;SDS011;50512;53.666;9.700;2022-10-15T08:12:59;49.25;;;16.80;;
64197;SDS011;50512;53.666;9.700;2022-10-15T08:15:25;49.15;;;17.83;;
64197;SDS011;50512;53.666;9.700;2022-10-15T08:17:52;46.05;;;17.73;;
64197;SDS011;50512;53.666;9.700;2022-10-15T08:20:17;51.33;;;18.45;;
64197;SDS011;50512;53.666;9.700;2022-10-15T08:22:43;46.65;;;17.45;;
64197;SDS011;50512;53.666;9.700;2022-10-15T08:25:08;53.08;;;18.17;;
64197;SDS011;50512;53.666;9.700;2022-10-15T08:27:34;43.15;;;16.52;;
64197;SDS011;50512;53.666;9.700;2022-10-15T08:29:59;48.83;;;18.27;;
64197;SDS011;50512;53.666;9.700;2022-10-15T08:32:25;40.80;;;15.82;;
64197;SDS011;50512;53.666;9.700;2022-10-15T08:34:51;46.90;;;16.48;;
64197;SDS011;50512;53.666;9.700;2022-10-15T08:37:17;42.67;;;16.75;;
64197;SDS011;50512;53.666;9.700;2022-10-15T08:39:42;36.70;;;15.25;;
64197;SDS011;50512;53.666;9.700;2022-10-15T08:42:12;37.03;;;14.65;;
64197;SDS011;50512;53.666;9.700;2022-10-15T08:44:41;34.85;;;13.30;;
64197;SDS011;50512;53.666;9.700;2022-10-15T08:47:12;41.03;;;14.45;;
64197;SDS011;50512;53.666;9.700;2022-10-15T08:49:49;36.75;;;14.48;;
64197;SDS011;50512;53.666;9.700;2022-10-15T08:52:17;45.17;;;15.27;;
64197;SDS011;50512;53.666;9.700;2022-10-15T08:54:48;34.80;;;15.50;;
64197;SDS011;50512;53.666;9.700;2022-10-15T08:57:16;81.47;;;26.42;;
64197;SDS011;50512;53.666;9.700;2022-10-15T08:59:53;44.85;;;17.60;;
64197;SDS011;50512;53.666;9.700;2022-10-15T09:02:25;38.72;;;15.32;;
64197;SDS011;50512;53.666;9.700;2022-10-15T09:04:58;45.78;;;15.48;;
64197;SDS011;50512;53.666;9.700;2022-10-15T09:07:32;38.50;;;14.75;;
64197;SDS011;50512;53.666;9.700;2022-10-15T09:10:05;35.47;;;15.10;;
64197;SDS011;50512;53.666;9.700;2022-10-15T09:12:41;34.85;;;14.02;;
64197;SDS011;50512;53.666;9.700;2022-10-15T09:15:13;39.28;;;15.95;;
64197;SDS011;50512;53.666;9.700;2022-10-15T09:17:41;30.95;;;13.38;;
64197;SDS011;50512;53.666;9.700;2022-10-15T09:20:12;34.28;;;14.30;;
64197;SDS011;50512;53.666;9.700;2022-10-15T09:22:40;28.50;;;12.57;;
64197;SDS011;50512;53.666;9.700;2022-10-15T09:25:12;32.00;;;13.07;;
64197;SDS011;50512;53.666;9.700;2022-10-15T09:27:39;30.35;;;14.18;;
64197;SDS011;50512;53.666;9.700;2022-10-15T09:30:05;33.33;;;14.65;;
64197;SDS011;50512;53.666;9.700;2022-10-15T09:32:43;31.45;;;13.82;;
64197;SDS011;50512;53.666;9.700;2022-10-15T09:35:12;33.20;;;14.15;;
64197;SDS011;50512;53.666;9.700;2022-10-15T09:37:46;33.42;;;13.98;;
64197;SDS011;50512;53.666;9.700;2022-10-15T09:40:23;36.38;;;14.45;;
64197;SDS011;50512;53.666;9.700;2022-10-15T09:42:56;36.53;;;14.27;;
64197;SDS011;50512;53.666;9.700;2022-10-15T09:45:23;31.95;;;13.38;;
64197;SDS011;50512;53.666;9.700;2022-10-15T09:47:49;32.47;;;13.27;;
64197;SDS011;50512;53.666;9.700;2022-10-15T09:50:15;30.83;;;12.73;;
64197;SDS011;50512;53.666;9.700;2022-10-15T09:52:47;36.88;;;13.45;;
64197;SDS011;50512;53.666;9.700;2022-10-15T09:55:28;31.40;;;13.90;;
64197;SDS011;50512;53.666;9.700;2022-10-15T09:58:00;33.40;;;14.27;;
64197;SDS011;50512;53.666;9.700;2022-10-15T10:03:27;30.08;;;13.40;;
64197;SDS011;50512;53.666;9.700;2022-10-15T10:06:04;36.15;;;14.48;;
64197;SDS011;50512;53.666;9.700;2022-10-15T10:08:34;34.50;;;13.23;;
64197;SDS011;50512;53.666;9.700;2022-10-15T10:11:03;31.08;;;13.30;;
64197;SDS011;50512;53.666;9.700;2022-10-15T10:13:30;34.88;;;13.25;;
64197;SDS011;50512;53.666;9.700;2022-10-15T10:16:01;32.45;;;13.15;;
64197;SDS011;50512;53.666;9.700;2022-10-15T10:18:28;26.23;;;11.50;;
64197;SDS011;50512;53.666;9.700;2022-10-15T10:20:54;31.70;;;14.13;;
64197;SDS011;50512;53.666;9.700;2022-10-15T10:23:21;28.15;;;12.15;;
64197;SDS011;50512;53.666;9.700;2022-10-15T10:25:49;31.85;;;13.02;;
64197;SDS011;50512;53.666;9.700;2022-10-15T10:28:16;37.22;;;12.00;;
64197;SDS011;50512;53.666;9.700;2022-10-15T10:30:48;27.88;;;12.30;;
64197;SDS011;50512;53.666;9.700;2022-10-15T10:33:18;25.63;;;11.15;;
64197;SDS011;50512;53.666;9.700;2022-10-15T10:35:49;28.25;;;12.90;;
64197;SDS011;50512;53.666;9.700;2022-10-15T10:38:18;25.25;;;10.85;;
64197;SDS011;50512;53.666;9.700;2022-10-15T10:40:49;27.23;;;11.38;;
64197;SDS011;50512;53.666;9.700;2022-10-15T10:43:17;27.88;;;11.95;;
64197;SDS011;50512;53.666;9.700;2022-10-15T10:45:54;25.08;;;9.63;;
64197;SDS011;50512;53.666;9.700;2022-10-15T10:48:21;24.60;;;10.88;;
64197;SDS011;50512;53.666;9.700;2022-10-15T10:50:55;25.55;;;11.02;;
64197;SDS011;50512;53.666;9.700;2022-10-15T10:53:26;28.17;;;10.60;;
64197;SDS011;50512;53.666;9.700;2022-10-15T10:55:54;26.98;;;10.75;;
64197;SDS011;50512;53.666;9.700;2022-10-15T10:58:21;23.00;;;10.98;;
64197;SDS011;50512;53.666;9.700;2022-10-15T11:00:48;23.88;;;10.50;;
64197;SDS011;50512;53.666;9.700;2022-10-15T11:03:19;21.73;;;10.13;;
64197;SDS011;50512;53.666;9.700;2022-10-15T11:05:55;22.25;;;9.88;;
64197;SDS011;50512;53.666;9.700;2022-10-15T11:08:26;25.05;;;10.73;;
64197;SDS011;50512;53.666;9.700;2022-10-15T11:11:02;21.63;;;9.68;;
64197;SDS011;50512;53.666;9.700;2022-10-15T11:13:40;23.15;;;8.80;;
64197;SDS011;50512;53.666;9.700;2022-10-15T11:16:14;21.42;;;9.68;;
64197;SDS011;50512;53.666;9.700;2022-10-15T11:18:58;26.52;;;10.70;;
64197;SDS011;50512;53.666;9.700;2022-10-15T11:21:35;21.83;;;10.17;;
64197;SDS011;50512;53.666;9.700;2022-10-15T11:24:11;21.98;;;9.82;;
64197;SDS011;50512;53.666;9.700;2022-10-15T11:26:46;18.83;;;9.63;;
64197;SDS011;50512;53.666;9.700;2022-10-15T11:29:19;21.83;;;9.10;;
64197;SDS011;50512;53.666;9.700;2022-10-15T11:31:50;19.85;;;8.65;;
64197;SDS011;50512;53.666;9.700;2022-10-15T11:34:26;22.60;;;9.45;;
64197;SDS011;50512;53.666;9.700;2022-10-15T11:37:06;18.73;;;8.00;;
64197;SDS011;50512;53.666;9.700;2022-10-15T11:39:48;18.15;;;7.50;;
64197;SDS011;50512;53.666;9.700;2022-10-15T11:42:24;20.83;;;8.68;;
64197;SDS011;50512;53.666;9.700;2022-10-15T11:44:58;19.70;;;9.25;;
64197;SDS011;50512;53.666;9.700;2022-10-15T11:47:35;20.80;;;7.30;;
64197;SDS011;50512;53.666;9.700;2022-10-15T11:50:20;17.85;;;7.65;;
64197;SDS011;50512;53.666;9.700;2022-10-15T11:52:54;19.02;;;7.78;;
64197;SDS011;50512;53.666;9.700;2022-10-15T11:55:38;14.55;;;7.20;;
64197;SDS011;50512;53.666;9.700;2022-10-15T11:58:11;16.63;;;6.95;;
64197;SDS011;50512;53.666;9.700;2022-10-15T12:00:42;15.13;;;7.32;;
64197;SDS011;50512;53.666;9.700;2022-10-15T12:03:12;19.85;;;7.57;;
64197;SDS011;50512;53.666;9.700;2022-10-15T12:05:40;19.80;;;6.72;;
64197;SDS011;50512;53.666;9.700;2022-10-15T12:08:10;16.33;;;7.50;;
64197;SDS011;50512;53.666;9.700;2022-10-15T12:10:40;17.05;;;7.82;;
64197;SDS011;50512;53.666;9.700;2022-10-15T12:13:22;20.95;;;8.80;;
64197;SDS011;50512;53.666;9.700;2022-10-15T12:15:55;17.10;;;7.72;;
64197;SDS011;50512;53.666;9.700;2022-10-15T12:18:30;19.35;;;8.25;;
64197;SDS011;50512;53.666;9.700;2022-10-15T12:21:00;16.05;;;6.18;;
64197;SDS011;50512;53.666;9.700;2022-10-15T12:23:38;19.95;;;8.05;;
64197;SDS011;50512;53.666;9.700;2022-10-15T12:26:08;17.95;;;6.82;;
64197;SDS011;50512;53.666;9.700;2022-10-15T12:28:53;15.43;;;6.25;;
64197;SDS011;50512;53.666;9.700;2022-10-15T12:31:21;17.55;;;7.30;;
64197;SDS011;50512;53.666;9.700;2022-10-15T12:33:47;18.95;;;7.30;;
64197;SDS011;50512;53.666;9.700;2022-10-15T12:36:21;19.98;;;8.02;;
64197;SDS011;50512;53.666;9.700;2022-10-15T12:38:51;16.90;;;6.85;;
64197;SDS011;50512;53.666;9.700;2022-10-15T12:41:22;15.10;;;6.65;;
64197;SDS011;50512;53.666;9.700;2022-10-15T12:44:04;16.45;;;6.05;;
64197;SDS011;50512;53.666;9.700;2022-10-15T12:46:34;12.90;;;5.38;;
64197;SDS011;50512;53.666;9.700;2022-10-15T12:49:01;11.45;;;5.00;;
64197;SDS011;50512;53.666;9.700;2022-10-15T12:55:17;11.82;;;5.07;;
64197;SDS011;50512;53.666;9.700;2022-10-15T13:00:48;10.98;;;5.35;;
64197;SDS011;50512;53.666;9.700;2022-10-15T13:03:21;11.35;;;4.72;;
64197;SDS011;50512;53.666;9.700;2022-10-15T13:05:51;11.38;;;4.43;;
64197;SDS011;50512;53.666;9.700;2022-10-15T13:08:18;12.73;;;4.75;;
64197;SDS011;50512;53.666;9.700;2022-10-15T13:10:48;10.18;;;4.53;;
64197;SDS011;50512;53.666;9.700;2022-10-15T13:13:16;9.85;;;4.35;;
64197;SDS011;50512;53.666;9.700;2022-10-15T13:15:50;13.18;;;5.32;;
64197;SDS011;50512;53.666;9.700;2022-10-15T13:18:19;10.82;;;5.43;;
64197;SDS011;50512;53.666;9.700;2022-10-15T13:20:46;11.48;;;6.00;;
64197;SDS011;50512;53.666;9.700;2022-10-15T13:23:15;10.20;;;4.53;;
64197;SDS011;50512;53.666;9.700;2022-10-15T13:25:42;10.27;;;5.38;;
64197;SDS011;50512;53.666;9.700;2022-10-15T13:31:06;10.45;;;5.38;;
64197;SDS011;50512;53.666;9.700;2022-10-15T13:33:38;9.50;;;5.18;;
64197;SDS011;50512;53.666;9.700;2022-10-15T13:36:06;14.02;;;5.53;;
64197;SDS011;50512;53.666;9.700;2022-10-15T13:38:33;12.07;;;4.75;;
64197;SDS011;50512;53.666;9.700;2022-10-15T13:41:01;12.27;;;5.88;;
64197;SDS011;50512;53.666;9.700;2022-10-15T13:43:26;12.50;;;5.68;;
64197;SDS011;50512;53.666;9.700;2022-10-15T13:45:52;13.00;;;6.20;;
64197;SDS011;50512;53.666;9.700;2022-10-15T13:48:21;11.40;;;5.65;;
64197;SDS011;50512;53.666;9.700;2022-10-15T13:50:49;10.40;;;5.25;;
64197;SDS011;50512;53.666;9.700;2022-10-15T13:53:19;12.75;;;5.15;;
64197;SDS011;50512;53.666;9.700;2022-10-15T13:55:48;10.63;;;5.57;;
64197;SDS011;50512;53.666;9.700;2022-10-15T13:58:16;10.48;;;5.68;;
64197;SDS011;50512;53.666;9.700;2022-10-15T14:00:48;11.43;;;5.20;;
64197;SDS011;50512;53.666;9.700;2022-10-15T14:03:18;10.25;;;4.80;;
64197;SDS011;50512;53.666;9.700;2022-10-15T14:05:46;15.45;;;6.32;;
64197;SDS011;50512;53.666;9.700;2022-10-15T14:08:14;13.00;;;5.75;;
64197;SDS011;50512;53.666;9.700;2022-10-15T14:10:51;16.77;;;7.10;;
64197;SDS011;50512;53.666;9.700;2022-10-15T14:13:17;15.70;;;8.35;;
64197;SDS011;50512;53.666;9.700;2022-10-15T14:15:44;15.10;;;7.60;;
64197;SDS011;50512;53.666;9.700;2022-10-15T14:18:12;18.77;;;9.02;;
64197;SDS011;50512;53.666;9.700;2022-10-15T14:20:46;20.75;;;9.60;;
64197;SDS011;50512;53.666;9.700;2022-10-15T14:23:15;21.45;;;9.98;;
64197;SDS011;50512;53.666;9.700;2022-10-15T14:25:44;19.27;;;9.10;;
64197;SDS011;50512;53.666;9.700;2022-10-15T14:28:16;21.33;;;9.52;;
64197;SDS011;50512;53.666;9.700;2022-10-15T14:30:44;18.10;;;8.20;;
64197;SDS011;50512;53.666;9.700;2022-10-15T14:36:03;18.92;;;8.32;;
64197;SDS011;50512;53.666;9.700;2022-10-15T14:38:31;19.40;;;9.30;;
64197;SDS011;50512;53.666;9.700;2022-10-15T14:40:57;16.98;;;8.82;;
64197;SDS011;50512;53.666;9.700;2022-10-15T14:43:27;19.55;;;9.95;;
64197;SDS011;50512;53.666;9.700;2022-10-15T14:45:56;20.58;;;9.45;;
64197;SDS011;50512;53.666;9.700;2022-10-15T14:48:24;20.25;;;10.23;;
64197;SDS011;50512;53.666;9.700;2022-10-15T14:50:51;19.95;;;10.02;;
64197;SDS011;50512;53.666;9.700;2022-10-15T14:53:19;19.95;;;9.27;;